sensor_id;sensor_type;location;lat;lon;timestamp;P1;durP1;ratioP1;P2;durP2;ratioP2
18789;SDS011;9523;42.650;23.386;2022-12-18T00:02:19;6.83;;;4.67;;
18789;SDS011;9523;42.650;23.386;2022-12-18T00:04:47;5.87;;;4.83;;
18789;SDS011;9523;42.650;23.386;2022-12-18T00:07:13;5.27;;;3.67;;
18789;SDS011;9523;42.650;23.386;2022-12-18T00:09:40;6.63;;;4.43;;
18789;SDS011;9523;42.650;23.386;2022-12-18T00:12:07;7.17;;;4.67;;
18789;SDS011;9523;42.650;23.386;2022-12-18T00:14:35;6.17;;;4.27;;
18789;SDS011;9523;42.650;23.386;2022-12-18T00:17:02;6.20;;;4.47;;
18789;SDS011;9523;42.650;23.386;2022-12-18T00:19:29;7.47;;;4.57;;
18789;SDS011;9523;42.650;23.386;2022-12-18T00:21:56;8.47;;;5.37;;
18789;SDS011;9523;42.650;23.386;2022-12-18T00:24:23;7.93;;;5.30;;
18789;SDS011;9523;42.650;23.386;2022-12-18T00:26:50;8.30;;;5.57;;
18789;SDS011;9523;42.650;23.386;2022-12-18T00:29:16;7.13;;;4.83;;
18789;SDS011;9523;42.650;23.386;2022-12-18T00:31:44;7.33;;;5.27;;
18789;SDS011;9523;42.650;23.386;2022-12-18T00:34:11;8.23;;;5.50;;
18789;SDS011;9523;42.650;23.386;2022-12-18T00:36:39;7.10;;;5.17;;
18789;SDS011;9523;42.650;23.386;2022-12-18T00:39:07;7.57;;;4.83;;
18789;SDS011;9523;42.650;23.386;2022-12-18T00:41:33;7.33;;;5.30;;
18789;SDS011;9523;42.650;23.386;2022-12-18T00:44:18;7.73;;;5.33;;
18789;SDS011;9523;42.650;23.386;2022-12-18T00:46:47;8.17;;;5.30;;
18789;SDS011;9523;42.650;23.386;2022-12-18T00:49:14;9.60;;;6.10;;
18789;SDS011;9523;42.650;23.386;2022-12-18T00:51:43;9.27;;;5.67;;
18789;SDS011;9523;42.650;23.386;2022-12-18T00:54:09;8.23;;;4.67;;
18789;SDS011;9523;42.650;23.386;2022-12-18T00:56:36;8.17;;;5.43;;
18789;SDS011;9523;42.650;23.386;2022-12-18T00:59:03;7.23;;;4.93;;
18789;SDS011;9523;42.650;23.386;2022-12-18T01:01:31;7.73;;;5.67;;
18789;SDS011;9523;42.650;23.386;2022-12-18T01:04:00;8.70;;;5.83;;
18789;SDS011;9523;42.650;23.386;2022-12-18T01:06:28;8.87;;;5.77;;
18789;SDS011;9523;42.650;23.386;2022-12-18T01:08:55;8.20;;;4.70;;
18789;SDS011;9523;42.650;23.386;2022-12-18T01:11:22;9.40;;;6.30;;
18789;SDS011;9523;42.650;23.386;2022-12-18T01:13:49;8.00;;;5.10;;
18789;SDS011;9523;42.650;23.386;2022-12-18T01:16:17;8.50;;;5.57;;
18789;SDS011;9523;42.650;23.386;2022-12-18T01:18:44;9.03;;;5.80;;
18789;SDS011;9523;42.650;23.386;2022-12-18T01:21:13;9.67;;;7.10;;
18789;SDS011;9523;42.650;23.386;2022-12-18T01:23:41;7.10;;;5.03;;
18789;SDS011;9523;42.650;23.386;2022-12-18T01:26:09;8.57;;;5.77;;
18789;SDS011;9523;42.650;23.386;2022-12-18T01:28:38;8.47;;;5.73;;
18789;SDS011;9523;42.650;23.386;2022-12-18T01:31:12;8.70;;;5.93;;
18789;SDS011;9523;42.650;23.386;2022-12-18T01:33:41;7.67;;;5.00;;
18789;SDS011;9523;42.650;23.386;2022-12-18T01:36:08;8.97;;;5.80;;
18789;SDS011;9523;42.650;23.386;2022-12-18T01:38:41;9.70;;;5.33;;
18789;SDS011;9523;42.650;23.386;2022-12-18T01:41:08;7.93;;;5.00;;
18789;SDS011;9523;42.650;23.386;2022-12-18T01:43:42;9.50;;;5.60;;
18789;SDS011;9523;42.650;23.386;2022-12-18T01:46:11;8.50;;;5.03;;
18789;SDS011;9523;42.650;23.386;2022-12-18T01:48:38;9.70;;;6.17;;
18789;SDS011;9523;42.650;23.386;2022-12-18T01:51:07;9.27;;;5.97;;
18789;SDS011;9523;42.650;23.386;2022-12-18T01:53:36;10.23;;;6.47;;
18789;SDS011;9523;42.650;23.386;2022-12-18T01:56:06;9.60;;;6.50;;
18789;SDS011;9523;42.650;23.386;2022-12-18T01:58:36;10.87;;;7.07;;
18789;SDS011;9523;42.650;23.386;2022-12-18T02:01:09;9.97;;;5.70;;
18789;SDS011;9523;42.650;23.386;2022-12-18T02:03:36;9.37;;;5.83;;
18789;SDS011;9523;42.650;23.386;2022-12-18T02:06:06;6.97;;;4.40;;
18789;SDS011;9523;42.650;23.386;2022-12-18T02:08:43;8.83;;;6.13;;
18789;SDS011;9523;42.650;23.386;2022-12-18T02:11:22;8.70;;;5.33;;
18789;SDS011;9523;42.650;23.386;2022-12-18T02:13:58;10.20;;;6.40;;
18789;SDS011;9523;42.650;23.386;2022-12-18T02:16:32;8.83;;;6.23;;
18789;SDS011;9523;42.650;23.386;2022-12-18T02:19:04;10.13;;;6.43;;
18789;SDS011;9523;42.650;23.386;2022-12-18T02:21:44;9.23;;;6.17;;
18789;SDS011;9523;42.650;23.386;2022-12-18T02:24:17;7.10;;;4.30;;
18789;SDS011;9523;42.650;23.386;2022-12-18T02:26:55;8.67;;;5.03;;
18789;SDS011;9523;42.650;23.386;2022-12-18T02:29:25;8.87;;;6.20;;
18789;SDS011;9523;42.650;23.386;2022-12-18T02:31:56;9.67;;;6.23;;
18789;SDS011;9523;42.650;23.386;2022-12-18T02:34:30;8.77;;;5.50;;
18789;SDS011;9523;42.650;23.386;2022-12-18T02:37:02;7.80;;;5.20;;
18789;SDS011;9523;42.650;23.386;2022-12-18T02:39:32;9.30;;;6.77;;
18789;SDS011;9523;42.650;23.386;2022-12-18T02:42:01;10.73;;;6.80;;
18789;SDS011;9523;42.650;23.386;2022-12-18T02:44:33;9.13;;;6.53;;
18789;SDS011;9523;42.650;23.386;2022-12-18T02:46:59;12.00;;;6.20;;
18789;SDS011;9523;42.650;23.386;2022-12-18T02:49:30;8.30;;;5.30;;
18789;SDS011;9523;42.650;23.386;2022-12-18T02:52:05;9.30;;;5.80;;
18789;SDS011;9523;42.650;23.386;2022-12-18T02:54:45;9.97;;;5.70;;
18789;SDS011;9523;42.650;23.386;2022-12-18T02:57:24;8.63;;;5.60;;
18789;SDS011;9523;42.650;23.386;2022-12-18T03:00:01;8.97;;;6.53;;
18789;SDS011;9523;42.650;23.386;2022-12-18T03:02:34;8.70;;;6.03;;
18789;SDS011;9523;42.650;23.386;2022-12-18T03:05:07;11.80;;;7.27;;
18789;SDS011;9523;42.650;23.386;2022-12-18T03:07:42;9.33;;;6.50;;
18789;SDS011;9523;42.650;23.386;2022-12-18T03:10:14;10.13;;;6.20;;
18789;SDS011;9523;42.650;23.386;2022-12-18T03:12:47;9.17;;;6.30;;
18789;SDS011;9523;42.650;23.386;2022-12-18T03:15:19;10.57;;;5.73;;
18789;SDS011;9523;42.650;23.386;2022-12-18T03:17:50;8.60;;;6.07;;
18789;SDS011;9523;42.650;23.386;2022-12-18T03:20:21;9.20;;;6.77;;
18789;SDS011;9523;42.650;23.386;2022-12-18T03:22:51;10.17;;;6.43;;
18789;SDS011;9523;42.650;23.386;2022-12-18T03:25:23;10.27;;;6.13;;
18789;SDS011;9523;42.650;23.386;2022-12-18T03:27:55;9.07;;;6.00;;
18789;SDS011;9523;42.650;23.386;2022-12-18T03:30:24;8.67;;;5.63;;
18789;SDS011;9523;42.650;23.386;2022-12-18T03:32:56;9.03;;;5.67;;
18789;SDS011;9523;42.650;23.386;2022-12-18T03:35:29;8.27;;;5.83;;
18789;SDS011;9523;42.650;23.386;2022-12-18T03:37:59;8.87;;;5.80;;
18789;SDS011;9523;42.650;23.386;2022-12-18T03:40:33;9.93;;;6.20;;
18789;SDS011;9523;42.650;23.386;2022-12-18T03:43:09;8.60;;;6.37;;
18789;SDS011;9523;42.650;23.386;2022-12-18T03:45:42;8.23;;;5.60;;
18789;SDS011;9523;42.650;23.386;2022-12-18T03:48:17;8.33;;;6.03;;
18789;SDS011;9523;42.650;23.386;2022-12-18T03:50:49;9.90;;;5.63;;
18789;SDS011;9523;42.650;23.386;2022-12-18T03:53:25;10.43;;;6.00;;
18789;SDS011;9523;42.650;23.386;2022-12-18T03:56:00;11.23;;;7.07;;
18789;SDS011;9523;42.650;23.386;2022-12-18T03:58:31;10.90;;;6.83;;
18789;SDS011;9523;42.650;23.386;2022-12-18T04:01:01;9.60;;;6.00;;
18789;SDS011;9523;42.650;23.386;2022-12-18T04:03:34;9.60;;;5.90;;
18789;SDS011;9523;42.650;23.386;2022-12-18T04:06:02;9.93;;;6.37;;
18789;SDS011;9523;42.650;23.386;2022-12-18T04:08:31;9.67;;;5.93;;
18789;SDS011;9523;42.650;23.386;2022-12-18T04:10:58;10.77;;;6.87;;
18789;SDS011;9523;42.650;23.386;2022-12-18T04:13:27;8.20;;;5.40;;
18789;SDS011;9523;42.650;23.386;2022-12-18T04:15:57;9.47;;;6.17;;
18789;SDS011;9523;42.650;23.386;2022-12-18T04:18:24;11.33;;;6.77;;
18789;SDS011;9523;42.650;23.386;2022-12-18T04:20:50;9.13;;;5.80;;
18789;SDS011;9523;42.650;23.386;2022-12-18T04:23:17;9.77;;;6.40;;
18789;SDS011;9523;42.650;23.386;2022-12-18T04:25:44;9.67;;;5.97;;
18789;SDS011;9523;42.650;23.386;2022-12-18T04:28:13;9.20;;;5.63;;
18789;SDS011;9523;42.650;23.386;2022-12-18T04:30:39;11.57;;;6.00;;
18789;SDS011;9523;42.650;23.386;2022-12-18T04:33:09;9.40;;;6.67;;
18789;SDS011;9523;42.650;23.386;2022-12-18T04:35:37;9.63;;;6.63;;
18789;SDS011;9523;42.650;23.386;2022-12-18T04:38:05;9.53;;;5.93;;
18789;SDS011;9523;42.650;23.386;2022-12-18T04:40:32;9.40;;;6.40;;
18789;SDS011;9523;42.650;23.386;2022-12-18T04:42:58;10.33;;;6.10;;
18789;SDS011;9523;42.650;23.386;2022-12-18T04:45:25;12.93;;;7.50;;
18789;SDS011;9523;42.650;23.386;2022-12-18T04:47:52;10.47;;;6.90;;
18789;SDS011;9523;42.650;23.386;2022-12-18T04:50:20;11.57;;;7.13;;
18789;SDS011;9523;42.650;23.386;2022-12-18T04:52:47;14.97;;;7.90;;
18789;SDS011;9523;42.650;23.386;2022-12-18T04:55:14;13.73;;;7.80;;
18789;SDS011;9523;42.650;23.386;2022-12-18T04:57:41;13.00;;;6.87;;
18789;SDS011;9523;42.650;23.386;2022-12-18T05:00:08;10.23;;;6.87;;
18789;SDS011;9523;42.650;23.386;2022-12-18T05:02:35;13.67;;;8.07;;
18789;SDS011;9523;42.650;23.386;2022-12-18T05:05:02;13.47;;;8.23;;
18789;SDS011;9523;42.650;23.386;2022-12-18T05:07:31;14.40;;;8.00;;
18789;SDS011;9523;42.650;23.386;2022-12-18T05:09:58;15.23;;;8.57;;
18789;SDS011;9523;42.650;23.386;2022-12-18T05:12:25;16.13;;;7.77;;
18789;SDS011;9523;42.650;23.386;2022-12-18T05:14:52;13.00;;;7.77;;
18789;SDS011;9523;42.650;23.386;2022-12-18T05:17:19;13.30;;;8.10;;
18789;SDS011;9523;42.650;23.386;2022-12-18T05:19:45;16.50;;;8.73;;
18789;SDS011;9523;42.650;23.386;2022-12-18T05:22:12;13.50;;;7.83;;
18789;SDS011;9523;42.650;23.386;2022-12-18T05:24:40;12.50;;;7.90;;
18789;SDS011;9523;42.650;23.386;2022-12-18T05:27:07;13.20;;;8.23;;
18789;SDS011;9523;42.650;23.386;2022-12-18T05:29:34;14.80;;;8.30;;
18789;SDS011;9523;42.650;23.386;2022-12-18T05:32:01;14.77;;;7.33;;
18789;SDS011;9523;42.650;23.386;2022-12-18T05:34:27;11.87;;;6.80;;
18789;SDS011;9523;42.650;23.386;2022-12-18T05:36:54;12.37;;;7.10;;
18789;SDS011;9523;42.650;23.386;2022-12-18T05:39:21;15.23;;;8.53;;
18789;SDS011;9523;42.650;23.386;2022-12-18T05:41:49;13.07;;;7.60;;
18789;SDS011;9523;42.650;23.386;2022-12-18T05:44:16;18.37;;;8.30;;
18789;SDS011;9523;42.650;23.386;2022-12-18T05:46:43;14.43;;;8.17;;
18789;SDS011;9523;42.650;23.386;2022-12-18T05:49:09;13.67;;;7.87;;
18789;SDS011;9523;42.650;23.386;2022-12-18T05:51:36;13.67;;;7.53;;
18789;SDS011;9523;42.650;23.386;2022-12-18T05:54:03;15.37;;;8.20;;
18789;SDS011;9523;42.650;23.386;2022-12-18T05:56:30;15.30;;;7.87;;
18789;SDS011;9523;42.650;23.386;2022-12-18T05:58:58;13.00;;;7.40;;
18789;SDS011;9523;42.650;23.386;2022-12-18T06:01:25;15.03;;;7.67;;
18789;SDS011;9523;42.650;23.386;2022-12-18T06:03:52;15.23;;;9.17;;
18789;SDS011;9523;42.650;23.386;2022-12-18T06:06:20;14.90;;;8.40;;
18789;SDS011;9523;42.650;23.386;2022-12-18T06:08:48;14.40;;;8.67;;
18789;SDS011;9523;42.650;23.386;2022-12-18T06:11:17;12.83;;;7.30;;
18789;SDS011;9523;42.650;23.386;2022-12-18T06:13:45;14.27;;;8.30;;
18789;SDS011;9523;42.650;23.386;2022-12-18T06:16:14;17.00;;;8.67;;
18789;SDS011;9523;42.650;23.386;2022-12-18T06:18:40;14.73;;;8.97;;
18789;SDS011;9523;42.650;23.386;2022-12-18T06:21:07;14.60;;;8.80;;
18789;SDS011;9523;42.650;23.386;2022-12-18T06:23:34;13.27;;;8.30;;
18789;SDS011;9523;42.650;23.386;2022-12-18T06:26:03;15.10;;;7.97;;
18789;SDS011;9523;42.650;23.386;2022-12-18T06:28:31;15.77;;;8.20;;
18789;SDS011;9523;42.650;23.386;2022-12-18T06:30:58;16.67;;;8.80;;
18789;SDS011;9523;42.650;23.386;2022-12-18T06:33:27;15.97;;;9.03;;
18789;SDS011;9523;42.650;23.386;2022-12-18T06:35:54;15.80;;;8.83;;
18789;SDS011;9523;42.650;23.386;2022-12-18T06:38:21;17.27;;;9.13;;
18789;SDS011;9523;42.650;23.386;2022-12-18T06:40:47;14.77;;;9.03;;
18789;SDS011;9523;42.650;23.386;2022-12-18T06:43:14;16.40;;;9.50;;
18789;SDS011;9523;42.650;23.386;2022-12-18T06:45:41;16.67;;;9.80;;
18789;SDS011;9523;42.650;23.386;2022-12-18T06:48:08;14.50;;;8.90;;
18789;SDS011;9523;42.650;23.386;2022-12-18T06:50:36;12.50;;;7.17;;
18789;SDS011;9523;42.650;23.386;2022-12-18T06:53:04;18.23;;;8.20;;
18789;SDS011;9523;42.650;23.386;2022-12-18T06:55:31;17.40;;;9.70;;
18789;SDS011;9523;42.650;23.386;2022-12-18T06:57:58;16.37;;;9.97;;
18789;SDS011;9523;42.650;23.386;2022-12-18T07:00:25;16.47;;;8.47;;
18789;SDS011;9523;42.650;23.386;2022-12-18T07:02:51;15.47;;;9.50;;
18789;SDS011;9523;42.650;23.386;2022-12-18T07:05:18;16.83;;;9.53;;
18789;SDS011;9523;42.650;23.386;2022-12-18T07:07:46;13.80;;;8.60;;
18789;SDS011;9523;42.650;23.386;2022-12-18T07:10:13;17.77;;;8.73;;
18789;SDS011;9523;42.650;23.386;2022-12-18T07:12:40;16.50;;;9.20;;
18789;SDS011;9523;42.650;23.386;2022-12-18T07:15:07;14.83;;;8.60;;
18789;SDS011;9523;42.650;23.386;2022-12-18T07:17:34;18.17;;;9.23;;
18789;SDS011;9523;42.650;23.386;2022-12-18T07:20:01;13.70;;;8.60;;
18789;SDS011;9523;42.650;23.386;2022-12-18T07:22:28;17.43;;;8.83;;
18789;SDS011;9523;42.650;23.386;2022-12-18T07:24:57;17.17;;;9.43;;
18789;SDS011;9523;42.650;23.386;2022-12-18T07:27:23;16.67;;;9.70;;
18789;SDS011;9523;42.650;23.386;2022-12-18T07:29:50;18.30;;;9.70;;
18789;SDS011;9523;42.650;23.386;2022-12-18T07:32:17;19.37;;;9.37;;
18789;SDS011;9523;42.650;23.386;2022-12-18T07:34:44;17.60;;;10.03;;
18789;SDS011;9523;42.650;23.386;2022-12-18T07:37:11;16.20;;;8.70;;
18789;SDS011;9523;42.650;23.386;2022-12-18T07:39:38;15.50;;;8.93;;
18789;SDS011;9523;42.650;23.386;2022-12-18T07:42:06;10.73;;;6.67;;
18789;SDS011;9523;42.650;23.386;2022-12-18T07:44:51;16.77;;;10.17;;
18789;SDS011;9523;42.650;23.386;2022-12-18T07:47:17;16.67;;;9.57;;
18789;SDS011;9523;42.650;23.386;2022-12-18T07:49:44;19.57;;;11.20;;
18789;SDS011;9523;42.650;23.386;2022-12-18T07:52:11;21.07;;;11.60;;
18789;SDS011;9523;42.650;23.386;2022-12-18T07:54:38;21.77;;;11.10;;
18789;SDS011;9523;42.650;23.386;2022-12-18T07:57:07;19.13;;;10.57;;
18789;SDS011;9523;42.650;23.386;2022-12-18T07:59:34;17.23;;;10.50;;
18789;SDS011;9523;42.650;23.386;2022-12-18T08:02:01;20.47;;;11.23;;
18789;SDS011;9523;42.650;23.386;2022-12-18T08:04:28;20.93;;;10.87;;
18789;SDS011;9523;42.650;23.386;2022-12-18T08:06:54;19.87;;;11.50;;
18789;SDS011;9523;42.650;23.386;2022-12-18T08:09:21;18.67;;;9.83;;
18789;SDS011;9523;42.650;23.386;2022-12-18T08:11:48;22.17;;;12.37;;
18789;SDS011;9523;42.650;23.386;2022-12-18T08:14:16;21.53;;;12.13;;
18789;SDS011;9523;42.650;23.386;2022-12-18T08:16:43;21.47;;;11.47;;
18789;SDS011;9523;42.650;23.386;2022-12-18T08:19:10;24.97;;;11.97;;
18789;SDS011;9523;42.650;23.386;2022-12-18T08:21:37;21.37;;;10.33;;
18789;SDS011;9523;42.650;23.386;2022-12-18T08:24:04;21.00;;;10.87;;
18789;SDS011;9523;42.650;23.386;2022-12-18T08:26:31;23.37;;;12.53;;
18789;SDS011;9523;42.650;23.386;2022-12-18T08:28:59;19.27;;;10.60;;
18789;SDS011;9523;42.650;23.386;2022-12-18T08:31:27;23.60;;;13.07;;
18789;SDS011;9523;42.650;23.386;2022-12-18T08:33:55;28.37;;;13.30;;
18789;SDS011;9523;42.650;23.386;2022-12-18T08:36:23;21.73;;;12.50;;
18789;SDS011;9523;42.650;23.386;2022-12-18T08:38:50;21.70;;;11.50;;
18789;SDS011;9523;42.650;23.386;2022-12-18T08:41:20;25.83;;;12.90;;
18789;SDS011;9523;42.650;23.386;2022-12-18T08:43:47;22.37;;;12.60;;
18789;SDS011;9523;42.650;23.386;2022-12-18T08:46:34;26.73;;;11.97;;
18789;SDS011;9523;42.650;23.386;2022-12-18T08:49:03;24.60;;;12.90;;
18789;SDS011;9523;42.650;23.386;2022-12-18T08:51:31;24.80;;;12.87;;
18789;SDS011;9523;42.650;23.386;2022-12-18T08:53:59;22.20;;;12.00;;
18789;SDS011;9523;42.650;23.386;2022-12-18T08:56:26;16.13;;;8.57;;
18789;SDS011;9523;42.650;23.386;2022-12-18T08:58:53;19.83;;;10.43;;
18789;SDS011;9523;42.650;23.386;2022-12-18T09:01:20;14.03;;;7.63;;
18789;SDS011;9523;42.650;23.386;2022-12-18T09:03:49;18.63;;;9.57;;
18789;SDS011;9523;42.650;23.386;2022-12-18T09:06:17;20.90;;;12.03;;
18789;SDS011;9523;42.650;23.386;2022-12-18T09:08:45;22.60;;;10.83;;
18789;SDS011;9523;42.650;23.386;2022-12-18T09:11:14;20.20;;;10.90;;
18789;SDS011;9523;42.650;23.386;2022-12-18T09:13:44;18.53;;;9.67;;
18789;SDS011;9523;42.650;23.386;2022-12-18T09:16:11;19.87;;;10.23;;
18789;SDS011;9523;42.650;23.386;2022-12-18T09:18:38;21.27;;;10.13;;
18789;SDS011;9523;42.650;23.386;2022-12-18T09:21:10;18.77;;;10.63;;
18789;SDS011;9523;42.650;23.386;2022-12-18T09:23:38;20.70;;;10.57;;
18789;SDS011;9523;42.650;23.386;2022-12-18T09:26:05;23.10;;;11.73;;
18789;SDS011;9523;42.650;23.386;2022-12-18T09:28:32;21.70;;;11.80;;
18789;SDS011;9523;42.650;23.386;2022-12-18T09:31:03;21.87;;;11.13;;
18789;SDS011;9523;42.650;23.386;2022-12-18T09:33:32;20.53;;;11.77;;
18789;SDS011;9523;42.650;23.386;2022-12-18T09:36:00;20.13;;;10.90;;
18789;SDS011;9523;42.650;23.386;2022-12-18T09:38:28;24.23;;;12.20;;
18789;SDS011;9523;42.650;23.386;2022-12-18T09:40:57;19.73;;;10.47;;
18789;SDS011;9523;42.650;23.386;2022-12-18T09:43:28;18.33;;;9.90;;
18789;SDS011;9523;42.650;23.386;2022-12-18T09:46:03;23.30;;;10.73;;
18789;SDS011;9523;42.650;23.386;2022-12-18T09:48:34;20.53;;;10.80;;
18789;SDS011;9523;42.650;23.386;2022-12-18T09:51:05;20.77;;;11.27;;
18789;SDS011;9523;42.650;23.386;2022-12-18T09:53:41;20.97;;;11.30;;
18789;SDS011;9523;42.650;23.386;2022-12-18T09:56:17;21.53;;;10.67;;
18789;SDS011;9523;42.650;23.386;2022-12-18T09:58:49;18.27;;;10.60;;
18789;SDS011;9523;42.650;23.386;2022-12-18T10:01:21;16.50;;;9.30;;
18789;SDS011;9523;42.650;23.386;2022-12-18T10:03:49;19.80;;;10.70;;
18789;SDS011;9523;42.650;23.386;2022-12-18T10:06:18;18.63;;;9.43;;
18789;SDS011;9523;42.650;23.386;2022-12-18T10:08:51;16.43;;;8.63;;
18789;SDS011;9523;42.650;23.386;2022-12-18T10:11:30;18.43;;;10.27;;
18789;SDS011;9523;42.650;23.386;2022-12-18T10:14:05;19.40;;;10.20;;
18789;SDS011;9523;42.650;23.386;2022-12-18T10:16:41;18.63;;;10.43;;
18789;SDS011;9523;42.650;23.386;2022-12-18T10:19:25;22.20;;;11.83;;
18789;SDS011;9523;42.650;23.386;2022-12-18T10:22:03;21.00;;;10.73;;
18789;SDS011;9523;42.650;23.386;2022-12-18T10:24:44;20.07;;;10.77;;
18789;SDS011;9523;42.650;23.386;2022-12-18T10:27:21;20.23;;;11.57;;
18789;SDS011;9523;42.650;23.386;2022-12-18T10:29:51;17.53;;;8.80;;
18789;SDS011;9523;42.650;23.386;2022-12-18T10:32:18;18.27;;;10.37;;
18789;SDS011;9523;42.650;23.386;2022-12-18T10:34:48;20.07;;;10.53;;
18789;SDS011;9523;42.650;23.386;2022-12-18T10:37:17;18.03;;;11.17;;
18789;SDS011;9523;42.650;23.386;2022-12-18T10:40:04;23.13;;;11.03;;
18789;SDS011;9523;42.650;23.386;2022-12-18T10:42:34;19.43;;;11.33;;
18789;SDS011;9523;42.650;23.386;2022-12-18T10:45:02;15.67;;;8.87;;
18789;SDS011;9523;42.650;23.386;2022-12-18T10:47:32;23.00;;;12.03;;
18789;SDS011;9523;42.650;23.386;2022-12-18T10:50:00;19.43;;;9.40;;
18789;SDS011;9523;42.650;23.386;2022-12-18T10:52:27;18.90;;;10.27;;
18789;SDS011;9523;42.650;23.386;2022-12-18T10:54:57;20.03;;;11.90;;
18789;SDS011;9523;42.650;23.386;2022-12-18T10:57:31;22.80;;;11.27;;
18789;SDS011;9523;42.650;23.386;2022-12-18T11:02:50;21.87;;;10.93;;
18789;SDS011;9523;42.650;23.386;2022-12-18T11:05:28;16.13;;;8.33;;
18789;SDS011;9523;42.650;23.386;2022-12-18T11:07:57;21.50;;;11.90;;
18789;SDS011;9523;42.650;23.386;2022-12-18T11:10:28;17.30;;;9.60;;
18789;SDS011;9523;42.650;23.386;2022-12-18T11:13:08;21.30;;;11.23;;
18789;SDS011;9523;42.650;23.386;2022-12-18T11:15:39;21.27;;;12.10;;
18789;SDS011;9523;42.650;23.386;2022-12-18T11:18:14;20.83;;;12.07;;
18789;SDS011;9523;42.650;23.386;2022-12-18T11:20:44;19.97;;;10.63;;
18789;SDS011;9523;42.650;23.386;2022-12-18T11:23:21;18.13;;;9.87;;
18789;SDS011;9523;42.650;23.386;2022-12-18T11:25:52;18.80;;;11.07;;
18789;SDS011;9523;42.650;23.386;2022-12-18T11:28:28;18.33;;;8.70;;
18789;SDS011;9523;42.650;23.386;2022-12-18T11:31:18;19.87;;;9.87;;
18789;SDS011;9523;42.650;23.386;2022-12-18T11:33:52;20.03;;;9.57;;
18789;SDS011;9523;42.650;23.386;2022-12-18T11:36:31;18.27;;;10.00;;
18789;SDS011;9523;42.650;23.386;2022-12-18T11:39:04;19.97;;;9.30;;
18789;SDS011;9523;42.650;23.386;2022-12-18T11:41:41;15.00;;;7.53;;
18789;SDS011;9523;42.650;23.386;2022-12-18T11:44:38;18.80;;;9.83;;
18789;SDS011;9523;42.650;23.386;2022-12-18T11:47:13;18.27;;;9.47;;
18789;SDS011;9523;42.650;23.386;2022-12-18T11:49:49;20.00;;;9.70;;
18789;SDS011;9523;42.650;23.386;2022-12-18T11:52:17;18.20;;;9.37;;
18789;SDS011;9523;42.650;23.386;2022-12-18T11:54:50;18.93;;;9.57;;
18789;SDS011;9523;42.650;23.386;2022-12-18T11:57:23;17.87;;;9.70;;
18789;SDS011;9523;42.650;23.386;2022-12-18T12:00:01;19.27;;;10.43;;
18789;SDS011;9523;42.650;23.386;2022-12-18T12:02:44;17.50;;;9.40;;
18789;SDS011;9523;42.650;23.386;2022-12-18T12:05:31;20.60;;;10.27;;
18789;SDS011;9523;42.650;23.386;2022-12-18T12:08:09;17.87;;;9.87;;
18789;SDS011;9523;42.650;23.386;2022-12-18T12:10:43;18.60;;;9.23;;
18789;SDS011;9523;42.650;23.386;2022-12-18T12:13:29;16.87;;;8.70;;
18789;SDS011;9523;42.650;23.386;2022-12-18T12:16:08;18.87;;;9.07;;
18789;SDS011;9523;42.650;23.386;2022-12-18T12:18:45;17.03;;;9.93;;
18789;SDS011;9523;42.650;23.386;2022-12-18T12:21:23;14.83;;;9.57;;
18789;SDS011;9523;42.650;23.386;2022-12-18T12:23:58;18.20;;;10.33;;
18789;SDS011;9523;42.650;23.386;2022-12-18T12:26:33;18.57;;;10.20;;
18789;SDS011;9523;42.650;23.386;2022-12-18T12:29:17;20.40;;;9.67;;
18789;SDS011;9523;42.650;23.386;2022-12-18T12:31:58;15.87;;;9.43;;
18789;SDS011;9523;42.650;23.386;2022-12-18T12:34:34;18.17;;;9.73;;
18789;SDS011;9523;42.650;23.386;2022-12-18T12:37:14;21.40;;;11.47;;
18789;SDS011;9523;42.650;23.386;2022-12-18T12:39:51;23.00;;;10.37;;
18789;SDS011;9523;42.650;23.386;2022-12-18T12:42:26;20.70;;;10.93;;
18789;SDS011;9523;42.650;23.386;2022-12-18T12:45:18;21.13;;;11.03;;
18789;SDS011;9523;42.650;23.386;2022-12-18T12:47:49;22.17;;;11.10;;
18789;SDS011;9523;42.650;23.386;2022-12-18T12:50:18;17.97;;;9.47;;
18789;SDS011;9523;42.650;23.386;2022-12-18T12:52:48;25.73;;;12.03;;
18789;SDS011;9523;42.650;23.386;2022-12-18T12:55:19;22.57;;;11.17;;
18789;SDS011;9523;42.650;23.386;2022-12-18T12:57:50;20.60;;;11.03;;
18789;SDS011;9523;42.650;23.386;2022-12-18T13:00:27;22.63;;;12.03;;
18789;SDS011;9523;42.650;23.386;2022-12-18T13:02:59;21.50;;;11.27;;
18789;SDS011;9523;42.650;23.386;2022-12-18T13:05:34;20.50;;;11.40;;
18789;SDS011;9523;42.650;23.386;2022-12-18T13:08:07;21.17;;;11.87;;
18789;SDS011;9523;42.650;23.386;2022-12-18T13:10:36;21.17;;;11.87;;
18789;SDS011;9523;42.650;23.386;2022-12-18T13:13:05;22.00;;;11.53;;
18789;SDS011;9523;42.650;23.386;2022-12-18T13:15:40;26.53;;;13.07;;
18789;SDS011;9523;42.650;23.386;2022-12-18T13:18:13;24.50;;;12.43;;
18789;SDS011;9523;42.650;23.386;2022-12-18T13:20:43;23.40;;;12.00;;
18789;SDS011;9523;42.650;23.386;2022-12-18T13:23:26;22.60;;;11.80;;
18789;SDS011;9523;42.650;23.386;2022-12-18T13:26:00;22.43;;;11.63;;
18789;SDS011;9523;42.650;23.386;2022-12-18T13:28:56;17.77;;;10.43;;
18789;SDS011;9523;42.650;23.386;2022-12-18T13:34:28;19.10;;;10.00;;
18789;SDS011;9523;42.650;23.386;2022-12-18T13:36:56;21.47;;;10.93;;
18789;SDS011;9523;42.650;23.386;2022-12-18T13:43:28;21.77;;;11.30;;
18789;SDS011;9523;42.650;23.386;2022-12-18T13:46:03;22.80;;;12.67;;
18789;SDS011;9523;42.650;23.386;2022-12-18T13:48:35;22.97;;;11.30;;
18789;SDS011;9523;42.650;23.386;2022-12-18T13:51:06;20.60;;;10.70;;
18789;SDS011;9523;42.650;23.386;2022-12-18T13:53:36;18.80;;;10.57;;
18789;SDS011;9523;42.650;23.386;2022-12-18T13:56:07;21.63;;;10.90;;
18789;SDS011;9523;42.650;23.386;2022-12-18T13:58:34;21.03;;;11.57;;
18789;SDS011;9523;42.650;23.386;2022-12-18T14:01:00;23.97;;;11.50;;
18789;SDS011;9523;42.650;23.386;2022-12-18T14:03:29;25.00;;;12.80;;
18789;SDS011;9523;42.650;23.386;2022-12-18T14:06:02;24.17;;;12.60;;
18789;SDS011;9523;42.650;23.386;2022-12-18T14:08:33;22.07;;;11.87;;
18789;SDS011;9523;42.650;23.386;2022-12-18T14:11:07;22.87;;;12.30;;
18789;SDS011;9523;42.650;23.386;2022-12-18T14:13:44;20.97;;;11.90;;
18789;SDS011;9523;42.650;23.386;2022-12-18T14:16:14;21.93;;;11.60;;
18789;SDS011;9523;42.650;23.386;2022-12-18T14:18:46;24.30;;;12.37;;
18789;SDS011;9523;42.650;23.386;2022-12-18T14:21:22;22.47;;;12.23;;
18789;SDS011;9523;42.650;23.386;2022-12-18T14:24:06;24.07;;;12.17;;
18789;SDS011;9523;42.650;23.386;2022-12-18T14:26:39;19.13;;;11.20;;
18789;SDS011;9523;42.650;23.386;2022-12-18T14:29:21;21.57;;;12.47;;
18789;SDS011;9523;42.650;23.386;2022-12-18T14:32:06;23.17;;;11.13;;
18789;SDS011;9523;42.650;23.386;2022-12-18T14:34:35;19.00;;;10.73;;
18789;SDS011;9523;42.650;23.386;2022-12-18T14:37:04;18.67;;;9.97;;
18789;SDS011;9523;42.650;23.386;2022-12-18T14:39:32;21.40;;;10.93;;
18789;SDS011;9523;42.650;23.386;2022-12-18T14:41:59;20.33;;;10.23;;
18789;SDS011;9523;42.650;23.386;2022-12-18T14:44:26;23.13;;;11.27;;
18789;SDS011;9523;42.650;23.386;2022-12-18T14:46:53;13.60;;;7.27;;
18789;SDS011;9523;42.650;23.386;2022-12-18T14:49:24;18.40;;;10.70;;
18789;SDS011;9523;42.650;23.386;2022-12-18T14:51:55;20.00;;;10.53;;
18789;SDS011;9523;42.650;23.386;2022-12-18T14:54:27;19.77;;;10.60;;
18789;SDS011;9523;42.650;23.386;2022-12-18T14:56:56;18.40;;;10.10;;
18789;SDS011;9523;42.650;23.386;2022-12-18T14:59:27;18.93;;;10.00;;
18789;SDS011;9523;42.650;23.386;2022-12-18T15:01:59;21.53;;;11.23;;
18789;SDS011;9523;42.650;23.386;2022-12-18T15:04:29;19.57;;;10.70;;